sensor_id;sensor_type;location;lat;lon;timestamp;temperature;humidity
24152;DHT22;12311;50.866;4.332;2024-03-02T00:02:14;6.50;99.90
24152;DHT22;12311;50.866;4.332;2024-03-02T00:04:40;6.50;99.90
24152;DHT22;12311;50.866;4.332;2024-03-02T00:07:06;6.50;99.90
24152;DHT22;12311;50.866;4.332;2024-03-02T00:09:33;6.40;99.90
24152;DHT22;12311;50.866;4.332;2024-03-02T00:11:59;6.40;99.90
24152;DHT22;12311;50.866;4.332;2024-03-02T00:14:25;6.50;99.90
24152;DHT22;12311;50.866;4.332;2024-03-02T00:16:51;6.40;99.90
24152;DHT22;12311;50.866;4.332;2024-03-02T00:19:18;6.40;99.90
24152;DHT22;12311;50.866;4.332;2024-03-02T00:21:44;6.40;99.90
24152;DHT22;12311;50.866;4.332;2024-03-02T00:24:21;6.40;99.90
24152;DHT22;12311;50.866;4.332;2024-03-02T00:26:51;6.40;99.90
24152;DHT22;12311;50.866;4.332;2024-03-02T00:29:17;6.40;99.90
24152;DHT22;12311;50.866;4.332;2024-03-02T00:31:44;6.40;99.90
24152;DHT22;12311;50.866;4.332;2024-03-02T00:34:12;6.40;99.90
24152;DHT22;12311;50.866;4.332;2024-03-02T00:36:39;6.40;99.90
24152;DHT22;12311;50.866;4.332;2024-03-02T00:39:05;6.40;99.90
24152;DHT22;12311;50.866;4.332;2024-03-02T00:41:34;6.40;99.90
24152;DHT22;12311;50.866;4.332;2024-03-02T00:46:36;6.50;99.90
24152;DHT22;12311;50.866;4.332;2024-03-02T00:49:03;6.50;99.90
24152;DHT22;12311;50.866;4.332;2024-03-02T00:51:30;6.50;99.90
24152;DHT22;12311;50.866;4.332;2024-03-02T00:53:59;6.50;99.90
24152;DHT22;12311;50.866;4.332;2024-03-02T00:56:26;6.50;99.90
24152;DHT22;12311;50.866;4.332;2024-03-02T00:58:52;6.50;99.90
24152;DHT22;12311;50.866;4.332;2024-03-02T01:01:18;6.50;99.90
24152;DHT22;12311;50.866;4.332;2024-03-02T01:03:45;6.50;99.90
24152;DHT22;12311;50.866;4.332;2024-03-02T01:06:11;6.40;99.90
24152;DHT22;12311;50.866;4.332;2024-03-02T01:08:37;6.50;99.90
24152;DHT22;12311;50.866;4.332;2024-03-02T01:11:04;6.50;99.90
24152;DHT22;12311;50.866;4.332;2024-03-02T01:13:30;6.60;99.90
24152;DHT22;12311;50.866;4.332;2024-03-02T01:15:56;6.60;99.90
24152;DHT22;12311;50.866;4.332;2024-03-02T01:18:22;6.60;99.90
24152;DHT22;12311;50.866;4.332;2024-03-02T01:20:49;6.60;99.90
24152;DHT22;12311;50.866;4.332;2024-03-02T01:23:20;6.60;99.90
24152;DHT22;12311;50.866;4.332;2024-03-02T01:25:47;6.60;99.90
24152;DHT22;12311;50.866;4.332;2024-03-02T01:28:14;6.60;99.90
24152;DHT22;12311;50.866;4.332;2024-03-02T01:30:40;6.60;99.90
24152;DHT22;12311;50.866;4.332;2024-03-02T01:33:06;6.60;99.90
24152;DHT22;12311;50.866;4.332;2024-03-02T01:35:32;6.70;99.90
24152;DHT22;12311;50.866;4.332;2024-03-02T01:37:57;6.70;99.90
24152;DHT22;12311;50.866;4.332;2024-03-02T01:40:24;6.60;99.90
24152;DHT22;12311;50.866;4.332;2024-03-02T01:42:53;6.60;99.90
24152;DHT22;12311;50.866;4.332;2024-03-02T01:45:23;6.70;99.90
24152;DHT22;12311;50.866;4.332;2024-03-02T01:47:49;6.70;99.90
24152;DHT22;12311;50.866;4.332;2024-03-02T01:50:15;6.60;99.90
24152;DHT22;12311;50.866;4.332;2024-03-02T01:52:41;6.70;99.90
24152;DHT22;12311;50.866;4.332;2024-03-02T01:55:07;6.70;99.90
24152;DHT22;12311;50.866;4.332;2024-03-02T01:57:34;6.80;99.90
24152;DHT22;12311;50.866;4.332;2024-03-02T02:00:00;6.80;99.90
24152;DHT22;12311;50.866;4.332;2024-03-02T02:02:26;6.80;99.90
24152;DHT22;12311;50.866;4.332;2024-03-02T02:04:52;6.80;99.90
24152;DHT22;12311;50.866;4.332;2024-03-02T02:07:18;6.80;99.90
24152;DHT22;12311;50.866;4.332;2024-03-02T02:09:44;6.70;99.90
24152;DHT22;12311;50.866;4.332;2024-03-02T02:12:10;6.80;99.90
24152;DHT22;12311;50.866;4.332;2024-03-02T02:14:36;6.80;99.90
24152;DHT22;12311;50.866;4.332;2024-03-02T02:17:02;6.80;99.90
24152;DHT22;12311;50.866;4.332;2024-03-02T02:19:28;6.80;99.90
24152;DHT22;12311;50.866;4.332;2024-03-02T02:21:54;6.80;99.90
24152;DHT22;12311;50.866;4.332;2024-03-02T02:24:20;6.80;99.90
24152;DHT22;12311;50.866;4.332;2024-03-02T02:26:46;6.90;99.90
24152;DHT22;12311;50.866;4.332;2024-03-02T02:29:12;6.80;99.90
24152;DHT22;12311;50.866;4.332;2024-03-02T02:31:38;6.80;99.90
24152;DHT22;12311;50.866;4.332;2024-03-02T02:34:05;6.80;99.90
24152;DHT22;12311;50.866;4.332;2024-03-02T02:36:33;6.80;99.90
24152;DHT22;12311;50.866;4.332;2024-03-02T02:39:02;6.80;99.90
24152;DHT22;12311;50.866;4.332;2024-03-02T02:41:32;6.80;99.90
24152;DHT22;12311;50.866;4.332;2024-03-02T02:43:57;6.80;99.90
24152;DHT22;12311;50.866;4.332;2024-03-02T02:46:23;6.80;99.90
24152;DHT22;12311;50.866;4.332;2024-03-02T02:48:49;6.80;99.90
24152;DHT22;12311;50.866;4.332;2024-03-02T02:51:16;6.80;99.90
24152;DHT22;12311;50.866;4.332;2024-03-02T02:53:42;6.80;99.90
24152;DHT22;12311;50.866;4.332;2024-03-02T02:56:08;6.80;99.90
24152;DHT22;12311;50.866;4.332;2024-03-02T02:58:34;6.80;99.90
24152;DHT22;12311;50.866;4.332;2024-03-02T03:00:59;6.80;99.90
24152;DHT22;12311;50.866;4.332;2024-03-02T03:03:25;6.80;99.90
24152;DHT22;12311;50.866;4.332;2024-03-02T03:05:51;6.80;99.90
24152;DHT22;12311;50.866;4.332;2024-03-02T03:08:16;6.80;99.90
24152;DHT22;12311;50.866;4.332;2024-03-02T03:10:42;6.80;99.90
24152;DHT22;12311;50.866;4.332;2024-03-02T03:13:08;6.80;99.90
24152;DHT22;12311;50.866;4.332;2024-03-02T03:15:37;6.70;99.90
24152;DHT22;12311;50.866;4.332;2024-03-02T03:18:03;6.70;99.90
24152;DHT22;12311;50.866;4.332;2024-03-02T03:20:30;6.70;99.90
24152;DHT22;12311;50.866;4.332;2024-03-02T03:22:56;6.70;99.90
24152;DHT22;12311;50.866;4.332;2024-03-02T03:25:22;6.70;99.90
24152;DHT22;12311;50.866;4.332;2024-03-02T03:27:48;6.60;99.90
24152;DHT22;12311;50.866;4.332;2024-03-02T03:30:14;6.50;99.90
24152;DHT22;12311;50.866;4.332;2024-03-02T03:32:40;6.50;99.90
24152;DHT22;12311;50.866;4.332;2024-03-02T03:35:06;6.50;99.90
24152;DHT22;12311;50.866;4.332;2024-03-02T03:37:32;6.50;99.90
24152;DHT22;12311;50.866;4.332;2024-03-02T03:40:02;6.50;99.90
24152;DHT22;12311;50.866;4.332;2024-03-02T03:42:28;6.60;99.90
24152;DHT22;12311;50.866;4.332;2024-03-02T03:44:54;6.60;99.90
24152;DHT22;12311;50.866;4.332;2024-03-02T03:47:19;6.60;99.90
24152;DHT22;12311;50.866;4.332;2024-03-02T03:49:46;6.60;99.90
24152;DHT22;12311;50.866;4.332;2024-03-02T03:52:11;6.70;99.90
24152;DHT22;12311;50.866;4.332;2024-03-02T03:54:37;6.70;99.90
24152;DHT22;12311;50.866;4.332;2024-03-02T03:57:04;6.70;99.90
24152;DHT22;12311;50.866;4.332;2024-03-02T03:59:30;6.70;99.90
24152;DHT22;12311;50.866;4.332;2024-03-02T04:01:56;6.70;99.90
24152;DHT22;12311;50.866;4.332;2024-03-02T04:04:21;6.80;99.90
24152;DHT22;12311;50.866;4.332;2024-03-02T04:06:47;6.80;99.90
24152;DHT22;12311;50.866;4.332;2024-03-02T04:09:13;6.80;99.90
24152;DHT22;12311;50.866;4.332;2024-03-02T04:11:39;6.80;99.90
24152;DHT22;12311;50.866;4.332;2024-03-02T04:14:05;6.80;99.90
24152;DHT22;12311;50.866;4.332;2024-03-02T04:16:31;6.80;99.90
24152;DHT22;12311;50.866;4.332;2024-03-02T04:18:57;6.80;99.90
24152;DHT22;12311;50.866;4.332;2024-03-02T04:21:23;6.80;99.90
24152;DHT22;12311;50.866;4.332;2024-03-02T04:23:49;6.80;99.90
24152;DHT22;12311;50.866;4.332;2024-03-02T04:26:14;6.80;99.90
24152;DHT22;12311;50.866;4.332;2024-03-02T04:28:45;6.80;99.90
24152;DHT22;12311;50.866;4.332;2024-03-02T04:31:10;6.80;99.90
24152;DHT22;12311;50.866;4.332;2024-03-02T04:33:36;6.80;99.90
24152;DHT22;12311;50.866;4.332;2024-03-02T04:36:02;6.80;99.90
24152;DHT22;12311;50.866;4.332;2024-03-02T04:38:27;6.80;99.90
24152;DHT22;12311;50.866;4.332;2024-03-02T04:40:54;6.80;99.90
24152;DHT22;12311;50.866;4.332;2024-03-02T04:43:19;6.90;99.90
24152;DHT22;12311;50.866;4.332;2024-03-02T04:45:45;6.80;99.90
24152;DHT22;12311;50.866;4.332;2024-03-02T04:48:11;6.80;99.90
24152;DHT22;12311;50.866;4.332;2024-03-02T04:50:37;6.70;99.90
24152;DHT22;12311;50.866;4.332;2024-03-02T04:53:02;6.70;99.90
24152;DHT22;12311;50.866;4.332;2024-03-02T04:55:28;6.70;99.90
24152;DHT22;12311;50.866;4.332;2024-03-02T04:57:54;6.60;99.90
24152;DHT22;12311;50.866;4.332;2024-03-02T05:00:22;6.60;99.90
24152;DHT22;12311;50.866;4.332;2024-03-02T05:02:47;6.60;99.90
24152;DHT22;12311;50.866;4.332;2024-03-02T05:05:13;6.50;99.90
24152;DHT22;12311;50.866;4.332;2024-03-02T05:07:41;6.50;99.90
24152;DHT22;12311;50.866;4.332;2024-03-02T05:10:08;6.50;99.90
24152;DHT22;12311;50.866;4.332;2024-03-02T05:12:34;6.40;99.90
24152;DHT22;12311;50.866;4.332;2024-03-02T05:15:02;6.40;99.90
24152;DHT22;12311;50.866;4.332;2024-03-02T05:17:28;6.40;99.90
24152;DHT22;12311;50.866;4.332;2024-03-02T05:19:54;6.30;99.90
24152;DHT22;12311;50.866;4.332;2024-03-02T05:22:19;6.20;99.90
24152;DHT22;12311;50.866;4.332;2024-03-02T05:24:45;6.20;99.90
24152;DHT22;12311;50.866;4.332;2024-03-02T05:27:11;6.20;99.90
24152;DHT22;12311;50.866;4.332;2024-03-02T05:29:36;6.10;99.90
24152;DHT22;12311;50.866;4.332;2024-03-02T05:32:02;6.10;99.90
24152;DHT22;12311;50.866;4.332;2024-03-02T05:34:28;6.10;99.90
24152;DHT22;12311;50.866;4.332;2024-03-02T05:36:54;6.10;99.90
24152;DHT22;12311;50.866;4.332;2024-03-02T05:39:20;6.10;99.90
24152;DHT22;12311;50.866;4.332;2024-03-02T05:41:45;6.10;99.90
24152;DHT22;12311;50.866;4.332;2024-03-02T05:44:11;6.20;99.90
24152;DHT22;12311;50.866;4.332;2024-03-02T05:46:37;6.10;99.90
24152;DHT22;12311;50.866;4.332;2024-03-02T05:49:03;6.10;99.90
24152;DHT22;12311;50.866;4.332;2024-03-02T05:51:29;6.10;99.90
24152;DHT22;12311;50.866;4.332;2024-03-02T05:53:54;6.10;99.90
24152;DHT22;12311;50.866;4.332;2024-03-02T05:56:20;6.10;99.90
24152;DHT22;12311;50.866;4.332;2024-03-02T05:58:46;6.10;99.90
24152;DHT22;12311;50.866;4.332;2024-03-02T06:01:47;6.10;99.90
24152;DHT22;12311;50.866;4.332;2024-03-02T06:04:14;6.10;99.90
24152;DHT22;12311;50.866;4.332;2024-03-02T06:06:40;6.00;99.90
24152;DHT22;12311;50.866;4.332;2024-03-02T06:09:06;6.00;99.90
24152;DHT22;12311;50.866;4.332;2024-03-02T06:11:38;6.00;99.90
24152;DHT22;12311;50.866;4.332;2024-03-02T06:14:05;6.00;99.90
24152;DHT22;12311;50.866;4.332;2024-03-02T06:16:31;6.00;99.90
24152;DHT22;12311;50.866;4.332;2024-03-02T06:18:57;6.00;99.90
24152;DHT22;12311;50.866;4.332;2024-03-02T06:21:26;6.10;99.90
24152;DHT22;12311;50.866;4.332;2024-03-02T06:23:52;6.00;99.90
24152;DHT22;12311;50.866;4.332;2024-03-02T06:26:18;6.00;99.90
24152;DHT22;12311;50.866;4.332;2024-03-02T06:28:44;6.00;99.90
24152;DHT22;12311;50.866;4.332;2024-03-02T06:31:10;6.00;99.90
24152;DHT22;12311;50.866;4.332;2024-03-02T06:33:36;6.00;99.90
24152;DHT22;12311;50.866;4.332;2024-03-02T06:36:02;6.00;99.90
24152;DHT22;12311;50.866;4.332;2024-03-02T06:38:28;6.00;99.90
24152;DHT22;12311;50.866;4.332;2024-03-02T06:40:54;6.00;99.90
24152;DHT22;12311;50.866;4.332;2024-03-02T06:43:20;5.90;99.90
24152;DHT22;12311;50.866;4.332;2024-03-02T06:45:52;5.90;99.90
24152;DHT22;12311;50.866;4.332;2024-03-02T06:48:18;5.90;99.90
24152;DHT22;12311;50.866;4.332;2024-03-02T06:50:49;6.00;99.90
24152;DHT22;12311;50.866;4.332;2024-03-02T06:53:16;6.00;99.90
24152;DHT22;12311;50.866;4.332;2024-03-02T06:55:45;6.00;99.90
24152;DHT22;12311;50.866;4.332;2024-03-02T06:58:12;6.10;99.90
24152;DHT22;12311;50.866;4.332;2024-03-02T07:00:38;6.00;99.90
24152;DHT22;12311;50.866;4.332;2024-03-02T07:03:04;6.00;99.90
24152;DHT22;12311;50.866;4.332;2024-03-02T07:05:29;6.10;99.90
24152;DHT22;12311;50.866;4.332;2024-03-02T07:07:55;6.10;99.90
24152;DHT22;12311;50.866;4.332;2024-03-02T07:10:21;6.20;99.90
24152;DHT22;12311;50.866;4.332;2024-03-02T07:12:46;6.20;99.90
24152;DHT22;12311;50.866;4.332;2024-03-02T07:15:12;6.20;99.90
24152;DHT22;12311;50.866;4.332;2024-03-02T07:17:55;6.20;99.90
24152;DHT22;12311;50.866;4.332;2024-03-02T07:20:21;6.20;99.90
24152;DHT22;12311;50.866;4.332;2024-03-02T07:22:47;6.20;99.90
24152;DHT22;12311;50.866;4.332;2024-03-02T07:25:12;6.20;99.90
24152;DHT22;12311;50.866;4.332;2024-03-02T07:27:39;6.30;99.90
24152;DHT22;12311;50.866;4.332;2024-03-02T07:30:06;6.30;99.90
24152;DHT22;12311;50.866;4.332;2024-03-02T07:32:32;6.40;99.90
24152;DHT22;12311;50.866;4.332;2024-03-02T07:34:57;6.40;99.90
24152;DHT22;12311;50.866;4.332;2024-03-02T07:37:23;6.40;99.90
24152;DHT22;12311;50.866;4.332;2024-03-02T07:39:50;6.40;99.90
24152;DHT22;12311;50.866;4.332;2024-03-02T07:42:16;6.50;99.90
24152;DHT22;12311;50.866;4.332;2024-03-02T07:44:41;6.50;99.90
24152;DHT22;12311;50.866;4.332;2024-03-02T07:47:09;6.50;99.90
24152;DHT22;12311;50.866;4.332;2024-03-02T07:49:35;6.50;99.90
24152;DHT22;12311;50.866;4.332;2024-03-02T07:52:01;6.60;99.90
24152;DHT22;12311;50.866;4.332;2024-03-02T07:54:26;6.60;99.90
24152;DHT22;12311;50.866;4.332;2024-03-02T07:56:52;6.60;99.90
24152;DHT22;12311;50.866;4.332;2024-03-02T07:59:18;6.60;99.90
24152;DHT22;12311;50.866;4.332;2024-03-02T08:01:43;6.70;99.90
24152;DHT22;12311;50.866;4.332;2024-03-02T08:04:09;6.70;99.90
24152;DHT22;12311;50.866;4.332;2024-03-02T08:06:35;6.80;99.90
24152;DHT22;12311;50.866;4.332;2024-03-02T08:09:01;6.90;99.90
24152;DHT22;12311;50.866;4.332;2024-03-02T08:11:27;7.00;99.90
24152;DHT22;12311;50.866;4.332;2024-03-02T08:13:53;7.10;99.90
24152;DHT22;12311;50.866;4.332;2024-03-02T08:16:23;7.20;99.90
24152;DHT22;12311;50.866;4.332;2024-03-02T08:18:49;7.20;99.90
24152;DHT22;12311;50.866;4.332;2024-03-02T08:21:16;7.20;99.90
24152;DHT22;12311;50.866;4.332;2024-03-02T08:23:42;7.20;99.90
24152;DHT22;12311;50.866;4.332;2024-03-02T08:26:11;7.30;99.90
24152;DHT22;12311;50.866;4.332;2024-03-02T08:28:37;7.30;99.90
24152;DHT22;12311;50.866;4.332;2024-03-02T08:31:04;7.40;99.90
24152;DHT22;12311;50.866;4.332;2024-03-02T08:33:30;7.40;99.90
24152;DHT22;12311;50.866;4.332;2024-03-02T08:35:56;7.50;99.90
24152;DHT22;12311;50.866;4.332;2024-03-02T08:38:22;7.60;99.90
24152;DHT22;12311;50.866;4.332;2024-03-02T08:40:48;7.60;99.90
24152;DHT22;12311;50.866;4.332;2024-03-02T08:43:14;7.70;99.90
24152;DHT22;12311;50.866;4.332;2024-03-02T08:45:40;7.80;99.90
24152;DHT22;12311;50.866;4.332;2024-03-02T08:48:08;7.80;99.90
24152;DHT22;12311;50.866;4.332;2024-03-02T08:50:34;7.90;99.90
24152;DHT22;12311;50.866;4.332;2024-03-02T08:53:00;8.00;99.90
24152;DHT22;12311;50.866;4.332;2024-03-02T08:55:26;8.10;99.90
24152;DHT22;12311;50.866;4.332;2024-03-02T08:57:52;8.20;99.90
24152;DHT22;12311;50.866;4.332;2024-03-02T09:00:18;8.30;99.90
24152;DHT22;12311;50.866;4.332;2024-03-02T09:02:44;8.40;99.90
24152;DHT22;12311;50.866;4.332;2024-03-02T09:05:10;8.50;99.90
24152;DHT22;12311;50.866;4.332;2024-03-02T09:07:36;8.60;99.90
24152;DHT22;12311;50.866;4.332;2024-03-02T09:10:04;8.60;99.90
24152;DHT22;12311;50.866;4.332;2024-03-02T09:12:29;8.70;99.90
24152;DHT22;12311;50.866;4.332;2024-03-02T09:14:55;8.70;99.90
24152;DHT22;12311;50.866;4.332;2024-03-02T09:17:21;8.80;99.90
24152;DHT22;12311;50.866;4.332;2024-03-02T09:19:46;8.80;99.90
24152;DHT22;12311;50.866;4.332;2024-03-02T09:22:13;8.90;99.90
24152;DHT22;12311;50.866;4.332;2024-03-02T09:24:38;8.90;99.90
24152;DHT22;12311;50.866;4.332;2024-03-02T09:27:04;9.10;99.90
24152;DHT22;12311;50.866;4.332;2024-03-02T09:29:31;9.20;99.90
24152;DHT22;12311;50.866;4.332;2024-03-02T09:31:56;9.20;99.90
24152;DHT22;12311;50.866;4.332;2024-03-02T09:34:22;9.20;99.90
24152;DHT22;12311;50.866;4.332;2024-03-02T09:36:48;9.20;99.90
24152;DHT22;12311;50.866;4.332;2024-03-02T09:39:14;9.30;99.90
24152;DHT22;12311;50.866;4.332;2024-03-02T09:41:39;9.30;99.90
24152;DHT22;12311;50.866;4.332;2024-03-02T09:44:06;9.40;99.90
24152;DHT22;12311;50.866;4.332;2024-03-02T09:46:32;9.30;99.90
24152;DHT22;12311;50.866;4.332;2024-03-02T09:48:58;9.40;99.90
24152;DHT22;12311;50.866;4.332;2024-03-02T09:51:24;9.40;99.90
24152;DHT22;12311;50.866;4.332;2024-03-02T09:53:50;9.50;99.90
24152;DHT22;12311;50.866;4.332;2024-03-02T09:56:16;9.40;99.90
24152;DHT22;12311;50.866;4.332;2024-03-02T09:58:44;9.50;99.90
24152;DHT22;12311;50.866;4.332;2024-03-02T10:01:09;9.60;99.90
24152;DHT22;12311;50.866;4.332;2024-03-02T10:03:38;9.70;99.90
24152;DHT22;12311;50.866;4.332;2024-03-02T10:08:45;10.10;99.00
24152;DHT22;12311;50.866;4.332;2024-03-02T10:11:28;10.10;97.60
24152;DHT22;12311;50.866;4.332;2024-03-02T10:14:13;10.30;98.40
24152;DHT22;12311;50.866;4.332;2024-03-02T10:16:44;10.70;97.50
24152;DHT22;12311;50.866;4.332;2024-03-02T10:19:20;11.00;94.90
24152;DHT22;12311;50.866;4.332;2024-03-02T10:21:50;11.00;90.90
24152;DHT22;12311;50.866;4.332;2024-03-02T10:24:17;11.00;91.30
24152;DHT22;12311;50.866;4.332;2024-03-02T10:26:43;10.90;91.20
24152;DHT22;12311;50.866;4.332;2024-03-02T10:29:10;11.20;90.90
24152;DHT22;12311;50.866;4.332;2024-03-02T10:31:40;11.20;84.80
24152;DHT22;12311;50.866;4.332;2024-03-02T10:34:08;11.20;89.80
24152;DHT22;12311;50.866;4.332;2024-03-02T10:36:37;11.50;84.10
24152;DHT22;12311;50.866;4.332;2024-03-02T10:39:07;11.40;80.40
24152;DHT22;12311;50.866;4.332;2024-03-02T10:41:34;11.40;85.30
24152;DHT22;12311;50.866;4.332;2024-03-02T10:44:06;11.70;74.10
24152;DHT22;12311;50.866;4.332;2024-03-02T10:46:33;11.70;72.00
24152;DHT22;12311;50.866;4.332;2024-03-02T10:49:00;11.80;70.60
24152;DHT22;12311;50.866;4.332;2024-03-02T10:51:27;11.80;65.20
24152;DHT22;12311;50.866;4.332;2024-03-02T10:53:56;11.70;66.90
24152;DHT22;12311;50.866;4.332;2024-03-02T10:56:26;11.70;58.90
24152;DHT22;12311;50.866;4.332;2024-03-02T10:59:01;11.50;57.90
24152;DHT22;12311;50.866;4.332;2024-03-02T11:01:27;11.60;64.90
24152;DHT22;12311;50.866;4.332;2024-03-02T11:03:54;11.40;60.70
24152;DHT22;12311;50.866;4.332;2024-03-02T11:06:22;11.50;65.20
24152;DHT22;12311;50.866;4.332;2024-03-02T11:08:49;11.50;62.40
24152;DHT22;12311;50.866;4.332;2024-03-02T11:11:27;11.50;65.40
24152;DHT22;12311;50.866;4.332;2024-03-02T11:13:57;11.40;63.80
24152;DHT22;12311;50.866;4.332;2024-03-02T11:16:33;11.50;70.80
24152;DHT22;12311;50.866;4.332;2024-03-02T11:19:13;11.60;63.20
24152;DHT22;12311;50.866;4.332;2024-03-02T11:21:41;11.60;57.80
24152;DHT22;12311;50.866;4.332;2024-03-02T11:26:51;11.60;60.20
24152;DHT22;12311;50.866;4.332;2024-03-02T11:29:52;11.80;63.60
24152;DHT22;12311;50.866;4.332;2024-03-02T11:32:21;12.00;61.20
24152;DHT22;12311;50.866;4.332;2024-03-02T11:34:49;12.20;56.00
24152;DHT22;12311;50.866;4.332;2024-03-02T11:37:19;12.30;51.10
24152;DHT22;12311;50.866;4.332;2024-03-02T11:39:51;12.00;59.70
24152;DHT22;12311;50.866;4.332;2024-03-02T11:42:17;12.00;56.60
24152;DHT22;12311;50.866;4.332;2024-03-02T11:44:46;11.90;56.90
24152;DHT22;12311;50.866;4.332;2024-03-02T11:47:14;11.90;60.60
24152;DHT22;12311;50.866;4.332;2024-03-02T11:49:58;12.00;61.80
24152;DHT22;12311;50.866;4.332;2024-03-02T11:52:26;12.40;61.00
24152;DHT22;12311;50.866;4.332;2024-03-02T11:54:53;12.60;51.40
24152;DHT22;12311;50.866;4.332;2024-03-02T11:57:23;12.50;45.80
24152;DHT22;12311;50.866;4.332;2024-03-02T11:59:49;12.60;48.90
24152;DHT22;12311;50.866;4.332;2024-03-02T12:02:17;12.70;47.50
24152;DHT22;12311;50.866;4.332;2024-03-02T12:04:44;12.90;43.10
24152;DHT22;12311;50.866;4.332;2024-03-02T12:07:11;13.10;41.00
24152;DHT22;12311;50.866;4.332;2024-03-02T12:09:37;13.10;46.10
24152;DHT22;12311;50.866;4.332;2024-03-02T12:12:07;13.00;42.40
24152;DHT22;12311;50.866;4.332;2024-03-02T12:14:34;13.00;43.00
24152;DHT22;12311;50.866;4.332;2024-03-02T12:17:00;12.80;44.30
24152;DHT22;12311;50.866;4.332;2024-03-02T12:19:26;12.70;46.00
24152;DHT22;12311;50.866;4.332;2024-03-02T12:21:53;12.80;49.80
24152;DHT22;12311;50.866;4.332;2024-03-02T12:24:20;12.70;44.30
24152;DHT22;12311;50.866;4.332;2024-03-02T12:26:46;12.80;44.60
24152;DHT22;12311;50.866;4.332;2024-03-02T12:29:13;12.90;40.60
24152;DHT22;12311;50.866;4.332;2024-03-02T12:31:41;12.90;47.70
24152;DHT22;12311;50.866;4.332;2024-03-02T12:34:07;13.20;40.90
24152;DHT22;12311;50.866;4.332;2024-03-02T12:36:40;13.60;37.50
24152;DHT22;12311;50.866;4.332;2024-03-02T12:39:07;13.70;28.90
24152;DHT22;12311;50.866;4.332;2024-03-02T12:41:36;13.60;26.00
24152;DHT22;12311;50.866;4.332;2024-03-02T12:44:03;13.20;31.80
24152;DHT22;12311;50.866;4.332;2024-03-02T12:46:28;13.10;38.10
24152;DHT22;12311;50.866;4.332;2024-03-02T12:48:54;13.20;43.70
24152;DHT22;12311;50.866;4.332;2024-03-02T12:51:20;13.30;35.90
24152;DHT22;12311;50.866;4.332;2024-03-02T12:53:52;13.30;38.10
24152;DHT22;12311;50.866;4.332;2024-03-02T12:56:18;13.30;38.90
24152;DHT22;12311;50.866;4.332;2024-03-02T12:58:44;13.30;36.70
24152;DHT22;12311;50.866;4.332;2024-03-02T13:01:10;13.60;37.10
24152;DHT22;12311;50.866;4.332;2024-03-02T13:03:39;13.50;29.90
24152;DHT22;12311;50.866;4.332;2024-03-02T13:06:08;13.50;32.70
24152;DHT22;12311;50.866;4.332;2024-03-02T13:08:34;13.60;27.00
24152;DHT22;12311;50.866;4.332;2024-03-02T13:11:01;13.40;27.10
24152;DHT22;12311;50.866;4.332;2024-03-02T13:13:30;13.10;30.10
24152;DHT22;12311;50.866;4.332;2024-03-02T13:15:56;13.10;35.60
24152;DHT22;12311;50.866;4.332;2024-03-02T13:18:22;13.00;33.10
24152;DHT22;12311;50.866;4.332;2024-03-02T13:20:48;13.10;30.90
24152;DHT22;12311;50.866;4.332;2024-03-02T13:23:14;13.10;34.90
24152;DHT22;12311;50.866;4.332;2024-03-02T13:25:39;13.00;36.10
24152;DHT22;12311;50.866;4.332;2024-03-02T13:28:06;13.20;38.10
24152;DHT22;12311;50.866;4.332;2024-03-02T13:30:32;13.30;33.70
24152;DHT22;12311;50.866;4.332;2024-03-02T13:32:58;13.20;35.60
24152;DHT22;12311;50.866;4.332;2024-03-02T13:35:24;13.10;37.30
24152;DHT22;12311;50.866;4.332;2024-03-02T13:37:50;13.00;38.10
24152;DHT22;12311;50.866;4.332;2024-03-02T13:40:16;13.10;41.20
24152;DHT22;12311;50.866;4.332;2024-03-02T13:42:46;13.30;37.50
24152;DHT22;12311;50.866;4.332;2024-03-02T13:45:12;13.30;34.60
24152;DHT22;12311;50.866;4.332;2024-03-02T13:47:38;13.20;35.50
24152;DHT22;12311;50.866;4.332;2024-03-02T13:50:04;13.10;38.40
24152;DHT22;12311;50.866;4.332;2024-03-02T13:52:31;13.20;43.50
24152;DHT22;12311;50.866;4.332;2024-03-02T13:54:57;13.40;38.70
24152;DHT22;12311;50.866;4.332;2024-03-02T13:57:23;13.40;38.00
24152;DHT22;12311;50.866;4.332;2024-03-02T13:59:48;13.20;38.60
24152;DHT22;12311;50.866;4.332;2024-03-02T14:02:15;13.10;44.70
24152;DHT22;12311;50.866;4.332;2024-03-02T14:04:40;13.20;46.80
24152;DHT22;12311;50.866;4.332;2024-03-02T14:07:07;13.30;44.20
24152;DHT22;12311;50.866;4.332;2024-03-02T14:09:33;13.30;48.50
24152;DHT22;12311;50.866;4.332;2024-03-02T14:11:58;13.30;48.50
24152;DHT22;12311;50.866;4.332;2024-03-02T14:14:26;13.20;52.40
24152;DHT22;12311;50.866;4.332;2024-03-02T14:16:52;13.30;51.30
24152;DHT22;12311;50.866;4.332;2024-03-02T14:19:19;13.10;59.40
24152;DHT22;12311;50.866;4.332;2024-03-02T14:21:47;12.90;67.70
24152;DHT22;12311;50.866;4.332;2024-03-02T14:24:13;12.80;82.20
24152;DHT22;12311;50.866;4.332;2024-03-02T14:26:39;12.50;90.20
24152;DHT22;12311;50.866;4.332;2024-03-02T14:29:06;12.30;91.10
24152;DHT22;12311;50.866;4.332;2024-03-02T14:31:32;12.10;95.60
24152;DHT22;12311;50.866;4.332;2024-03-02T14:33:58;12.00;95.60
24152;DHT22;12311;50.866;4.332;2024-03-02T14:36:25;11.90;98.70
24152;DHT22;12311;50.866;4.332;2024-03-02T14:38:53;11.80;97.50
24152;DHT22;12311;50.866;4.332;2024-03-02T14:41:18;11.80;99.80
24152;DHT22;12311;50.866;4.332;2024-03-02T14:43:44;11.80;99.90
24152;DHT22;12311;50.866;4.332;2024-03-02T14:46:10;11.80;99.90
24152;DHT22;12311;50.866;4.332;2024-03-02T14:48:37;11.80;99.20
24152;DHT22;12311;50.866;4.332;2024-03-02T14:51:03;11.80;99.50
24152;DHT22;12311;50.866;4.332;2024-03-02T14:53:29;11.80;98.10
24152;DHT22;12311;50.866;4.332;2024-03-02T14:55:55;11.90;97.80
24152;DHT22;12311;50.866;4.332;2024-03-02T14:58:20;11.90;98.00
24152;DHT22;12311;50.866;4.332;2024-03-02T15:00:46;11.90;95.60
24152;DHT22;12311;50.866;4.332;2024-03-02T15:03:12;11.90;96.20
24152;DHT22;12311;50.866;4.332;2024-03-02T15:05:38;11.90;97.10
24152;DHT22;12311;50.866;4.332;2024-03-02T15:08:06;11.90;97.20
24152;DHT22;12311;50.866;4.332;2024-03-02T15:10:32;11.90;98.00
24152;DHT22;12311;50.866;4.332;2024-03-02T15:12:58;12.10;96.60
24152;DHT22;12311;50.866;4.332;2024-03-02T15:15:24;12.10;95.50
24152;DHT22;12311;50.866;4.332;2024-03-02T15:17:52;12.00;95.60
24152;DHT22;12311;50.866;4.332;2024-03-02T15:20:18;12.10;94.80
24152;DHT22;12311;50.866;4.332;2024-03-02T15:22:45;12.00;97.00
24152;DHT22;12311;50.866;4.332;2024-03-02T15:25:11;11.90;97.50
24152;DHT22;12311;50.866;4.332;2024-03-02T15:27:37;11.80;98.50
24152;DHT22;12311;50.866;4.332;2024-03-02T15:30:03;11.90;99.90
24152;DHT22;12311;50.866;4.332;2024-03-02T15:32:29;11.90;99.90
24152;DHT22;12311;50.866;4.332;2024-03-02T15:34:54;11.90;98.70
24152;DHT22;12311;50.866;4.332;2024-03-02T15:37:20;11.90;99.00
24152;DHT22;12311;50.866;4.332;2024-03-02T15:39:45;12.00;98.90
24152;DHT22;12311;50.866;4.332;2024-03-02T15:42:11;12.00;99.30
24152;DHT22;12311;50.866;4.332;2024-03-02T15:44:38;12.00;99.00
24152;DHT22;12311;50.866;4.332;2024-03-02T15:47:04;12.00;99.90